sensor_id;sensor_type;location;lat;lon;timestamp;pressure;altitude;pressure_sealevel;temperature;humidity
37856;BME280;23694;43.274;26.924;2023-02-22T00:01:12;98603.44;;;11.93;45.67
37856;BME280;23694;43.274;26.924;2023-02-22T00:04:15;98602.72;;;12.02;45.38
37856;BME280;23694;43.274;26.924;2023-02-22T00:06:46;98608.81;;;11.91;45.62
37856;BME280;23694;43.274;26.924;2023-02-22T00:09:13;98610.97;;;11.97;45.30
37856;BME280;23694;43.274;26.924;2023-02-22T00:11:46;98596.78;;;11.89;45.44
37856;BME280;23694;43.274;26.924;2023-02-22T00:14:12;98597.84;;;11.86;45.95
37856;BME280;23694;43.274;26.924;2023-02-22T00:16:38;98606.91;;;11.71;46.68
37856;BME280;23694;43.274;26.924;2023-02-22T00:19:04;98608.13;;;11.78;46.22
37856;BME280;23694;43.274;26.924;2023-02-22T00:21:30;98606.91;;;11.82;45.80
37856;BME280;23694;43.274;26.924;2023-02-22T00:23:56;98614.78;;;11.82;45.84
37856;BME280;23694;43.274;26.924;2023-02-22T00:26:22;98618.63;;;11.78;45.63
37856;BME280;23694;43.274;26.924;2023-02-22T00:28:52;98618.22;;;11.71;46.30
37856;BME280;23694;43.274;26.924;2023-02-22T00:31:20;98611.63;;;11.66;46.66
37856;BME280;23694;43.274;26.924;2023-02-22T00:33:46;98616.66;;;11.69;46.54
37856;BME280;23694;43.274;26.924;2023-02-22T00:36:13;98612.03;;;11.72;46.54
37856;BME280;23694;43.274;26.924;2023-02-22T00:38:40;98608.06;;;11.67;46.73
37856;BME280;23694;43.274;26.924;2023-02-22T00:41:06;98597.94;;;11.62;46.87
37856;BME280;23694;43.274;26.924;2023-02-22T00:43:32;98601.75;;;11.69;46.81
37856;BME280;23694;43.274;26.924;2023-02-22T00:45:59;98596.72;;;11.66;47.00
37856;BME280;23694;43.274;26.924;2023-02-22T00:48:25;98591.50;;;11.55;47.14
37856;BME280;23694;43.274;26.924;2023-02-22T00:50:51;98590.19;;;11.61;46.76
37856;BME280;23694;43.274;26.924;2023-02-22T00:53:23;98589.09;;;11.52;47.08
37856;BME280;23694;43.274;26.924;2023-02-22T00:55:50;98594.84;;;11.57;47.20
37856;BME280;23694;43.274;26.924;2023-02-22T00:58:16;98588.03;;;11.66;46.65
37856;BME280;23694;43.274;26.924;2023-02-22T01:00:43;98591.97;;;11.60;46.69
37856;BME280;23694;43.274;26.924;2023-02-22T01:03:11;98597.69;;;11.65;46.83
37856;BME280;23694;43.274;26.924;2023-02-22T01:05:38;98587.44;;;11.62;46.94
37856;BME280;23694;43.274;26.924;2023-02-22T01:08:05;98590.78;;;11.64;46.86
37856;BME280;23694;43.274;26.924;2023-02-22T01:10:32;98594.72;;;11.59;46.94
37856;BME280;23694;43.274;26.924;2023-02-22T01:12:59;98586.72;;;11.49;47.22
37856;BME280;23694;43.274;26.924;2023-02-22T01:15:28;98586.13;;;11.46;47.37
37856;BME280;23694;43.274;26.924;2023-02-22T01:17:56;98594.84;;;11.46;47.46
37856;BME280;23694;43.274;26.924;2023-02-22T01:20:23;98593.53;;;11.52;47.27
37856;BME280;23694;43.274;26.924;2023-02-22T01:22:52;98590.06;;;11.51;47.28
37856;BME280;23694;43.274;26.924;2023-02-22T01:25:24;98590.91;;;11.40;47.51
37856;BME280;23694;43.274;26.924;2023-02-22T01:27:52;98591.50;;;11.44;47.15
37856;BME280;23694;43.274;26.924;2023-02-22T01:30:24;98585.28;;;11.45;47.37
37856;BME280;23694;43.274;26.924;2023-02-22T01:32:50;98592.56;;;11.41;47.27
37856;BME280;23694;43.274;26.924;2023-02-22T01:35:22;98590.78;;;11.42;47.25
37856;BME280;23694;43.274;26.924;2023-02-22T01:37:49;98593.16;;;11.34;47.45
37856;BME280;23694;43.274;26.924;2023-02-22T01:40:22;98593.75;;;11.37;47.69
37856;BME280;23694;43.274;26.924;2023-02-22T01:42:53;98589.34;;;11.27;47.75
37856;BME280;23694;43.274;26.924;2023-02-22T01:50:27;98586.22;;;11.10;48.33
37856;BME280;23694;43.274;26.924;2023-02-22T01:52:54;98577.88;;;11.05;48.33
37856;BME280;23694;43.274;26.924;2023-02-22T01:55:20;98591.34;;;11.12;48.29
37856;BME280;23694;43.274;26.924;2023-02-22T01:57:47;98590.88;;;11.07;48.56
37856;BME280;23694;43.274;26.924;2023-02-22T02:00:16;98591.75;;;10.95;48.84
37856;BME280;23694;43.274;26.924;2023-02-22T02:02:49;98598.28;;;10.89;48.99
37856;BME280;23694;43.274;26.924;2023-02-22T02:05:17;98601.53;;;10.93;48.99
37856;BME280;23694;43.274;26.924;2023-02-22T02:07:44;98593.66;;;10.93;49.04
37856;BME280;23694;43.274;26.924;2023-02-22T02:10:13;98587.56;;;10.81;49.51
37856;BME280;23694;43.274;26.924;2023-02-22T02:12:43;98589.50;;;10.90;49.19
37856;BME280;23694;43.274;26.924;2023-02-22T02:15:26;98590.06;;;10.83;49.42
37856;BME280;23694;43.274;26.924;2023-02-22T02:18:01;98597.53;;;10.76;49.55
37856;BME280;23694;43.274;26.924;2023-02-22T02:35:05;98605.28;;;10.77;49.53
37856;BME280;23694;43.274;26.924;2023-02-22T02:37:46;98609.34;;;10.82;49.17
37856;BME280;23694;43.274;26.924;2023-02-22T02:40:38;98603.13;;;10.71;49.22
37856;BME280;23694;43.274;26.924;2023-02-22T02:48:11;98605.59;;;10.62;49.81
37856;BME280;23694;43.274;26.924;2023-02-22T02:50:44;98603.69;;;10.64;49.35
37856;BME280;23694;43.274;26.924;2023-02-22T02:53:17;98604.41;;;10.66;49.67
37856;BME280;23694;43.274;26.924;2023-02-22T02:55:44;98598.06;;;10.57;49.78
37856;BME280;23694;43.274;26.924;2023-02-22T02:58:17;98613.56;;;10.60;49.91
37856;BME280;23694;43.274;26.924;2023-02-22T03:00:44;98617.59;;;10.53;50.05
37856;BME280;23694;43.274;26.924;2023-02-22T03:06:05;98613.34;;;10.63;49.75
37856;BME280;23694;43.274;26.924;2023-02-22T03:08:52;98625.50;;;10.64;49.59
37856;BME280;23694;43.274;26.924;2023-02-22T03:11:23;98620.69;;;10.58;49.84
37856;BME280;23694;43.274;26.924;2023-02-22T03:14:11;98630.13;;;10.61;49.98
37856;BME280;23694;43.274;26.924;2023-02-22T03:19:39;98629.63;;;10.56;49.68
37856;BME280;23694;43.274;26.924;2023-02-22T03:22:32;98620.44;;;10.50;50.03
37856;BME280;23694;43.274;26.924;2023-02-22T03:28:09;98618.75;;;10.49;50.24
37856;BME280;23694;43.274;26.924;2023-02-22T03:33:19;98616.59;;;10.43;50.22
37856;BME280;23694;43.274;26.924;2023-02-22T03:35:54;98614.50;;;10.35;50.62
37856;BME280;23694;43.274;26.924;2023-02-22T03:38:23;98608.31;;;10.36;50.49
37856;BME280;23694;43.274;26.924;2023-02-22T03:40:53;98617.72;;;10.39;50.58
37856;BME280;23694;43.274;26.924;2023-02-22T03:43:33;98618.06;;;10.34;50.66
37856;BME280;23694;43.274;26.924;2023-02-22T03:46:01;98618.66;;;10.38;50.81
37856;BME280;23694;43.274;26.924;2023-02-22T03:48:42;98628.31;;;10.37;50.77
37856;BME280;23694;43.274;26.924;2023-02-22T03:51:12;98626.63;;;10.36;50.89
37856;BME280;23694;43.274;26.924;2023-02-22T03:53:42;98618.72;;;10.25;51.30
37856;BME280;23694;43.274;26.924;2023-02-22T03:56:12;98629.47;;;10.33;50.53
37856;BME280;23694;43.274;26.924;2023-02-22T03:58:40;98632.72;;;10.37;50.91
37856;BME280;23694;43.274;26.924;2023-02-22T04:01:12;98628.19;;;10.39;50.62
37856;BME280;23694;43.274;26.924;2023-02-22T04:03:38;98635.44;;;10.35;50.74
37856;BME280;23694;43.274;26.924;2023-02-22T04:06:05;98632.22;;;10.32;50.84
37856;BME280;23694;43.274;26.924;2023-02-22T04:08:31;98632.31;;;10.30;50.75
37856;BME280;23694;43.274;26.924;2023-02-22T04:10:57;98630.31;;;10.34;50.52
37856;BME280;23694;43.274;26.924;2023-02-22T04:13:23;98635.56;;;10.34;50.81
37856;BME280;23694;43.274;26.924;2023-02-22T04:15:49;98624.81;;;10.26;51.17
37856;BME280;23694;43.274;26.924;2023-02-22T04:18:15;98630.03;;;10.26;50.63
37856;BME280;23694;43.274;26.924;2023-02-22T04:20:41;98632.03;;;10.22;51.00
37856;BME280;23694;43.274;26.924;2023-02-22T04:23:09;98616.63;;;10.17;51.03
37856;BME280;23694;43.274;26.924;2023-02-22T04:25:35;98619.91;;;10.08;51.40
37856;BME280;23694;43.274;26.924;2023-02-22T04:28:02;98625.16;;;10.08;51.76
37856;BME280;23694;43.274;26.924;2023-02-22T04:30:28;98625.03;;;10.10;51.24
37856;BME280;23694;43.274;26.924;2023-02-22T04:32:55;98625.44;;;10.16;51.31
37856;BME280;23694;43.274;26.924;2023-02-22T04:35:22;98633.16;;;10.18;51.09
37856;BME280;23694;43.274;26.924;2023-02-22T04:37:48;98641.34;;;10.13;51.02
37856;BME280;23694;43.274;26.924;2023-02-22T04:40:15;98633.00;;;10.08;50.98
37856;BME280;23694;43.274;26.924;2023-02-22T04:42:42;98638.72;;;10.13;51.18
37856;BME280;23694;43.274;26.924;2023-02-22T04:45:09;98638.63;;;10.15;51.63
37856;BME280;23694;43.274;26.924;2023-02-22T04:47:35;98637.78;;;10.14;51.71
37856;BME280;23694;43.274;26.924;2023-02-22T04:50:04;98639.16;;;10.20;50.86
37856;BME280;23694;43.274;26.924;2023-02-22T04:52:30;98637.19;;;10.11;51.60
37856;BME280;23694;43.274;26.924;2023-02-22T04:54:56;98636.34;;;10.10;51.28
37856;BME280;23694;43.274;26.924;2023-02-22T04:57:23;98637.50;;;10.06;51.84
37856;BME280;23694;43.274;26.924;2023-02-22T04:59:49;98638.00;;;10.11;51.89
37856;BME280;23694;43.274;26.924;2023-02-22T05:02:16;98640.72;;;10.10;51.46
37856;BME280;23694;43.274;26.924;2023-02-22T05:04:43;98640.22;;;10.05;51.57
37856;BME280;23694;43.274;26.924;2023-02-22T05:07:10;98644.78;;;10.27;51.22
37856;BME280;23694;43.274;26.924;2023-02-22T05:09:36;98650.34;;;10.59;50.14
37856;BME280;23694;43.274;26.924;2023-02-22T05:12:02;98649.59;;;10.80;49.60
37856;BME280;23694;43.274;26.924;2023-02-22T05:14:28;98652.59;;;11.22;48.38
37856;BME280;23694;43.274;26.924;2023-02-22T05:16:57;98638.81;;;11.65;47.24
37856;BME280;23694;43.274;26.924;2023-02-22T05:19:23;98640.31;;;11.80;46.57
37856;BME280;23694;43.274;26.924;2023-02-22T05:21:50;98649.19;;;12.33;45.10
37856;BME280;23694;43.274;26.924;2023-02-22T05:24:16;98642.03;;;12.79;43.60
37856;BME280;23694;43.274;26.924;2023-02-22T05:26:43;98658.91;;;13.29;42.36
37856;BME280;23694;43.274;26.924;2023-02-22T05:29:10;98656.97;;;13.52;42.02
37856;BME280;23694;43.274;26.924;2023-02-22T05:31:37;98653.44;;;13.93;40.56
37856;BME280;23694;43.274;26.924;2023-02-22T05:34:03;98663.09;;;14.23;40.05
37856;BME280;23694;43.274;26.924;2023-02-22T05:36:29;98665.75;;;14.92;38.77
37856;BME280;23694;43.274;26.924;2023-02-22T05:38:55;98663.53;;;15.16;37.86
37856;BME280;23694;43.274;26.924;2023-02-22T05:41:21;98669.91;;;14.85;38.39
37856;BME280;23694;43.274;26.924;2023-02-22T05:43:47;98677.09;;;14.23;39.59
37856;BME280;23694;43.274;26.924;2023-02-22T05:46:13;98676.53;;;13.80;40.44
37856;BME280;23694;43.274;26.924;2023-02-22T05:48:40;98685.00;;;13.83;40.36
37856;BME280;23694;43.274;26.924;2023-02-22T05:51:06;98684.97;;;13.32;41.70
37856;BME280;23694;43.274;26.924;2023-02-22T05:53:32;98686.59;;;13.12;43.13
37856;BME280;23694;43.274;26.924;2023-02-22T05:55:58;98690.47;;;13.29;42.46
37856;BME280;23694;43.274;26.924;2023-02-22T05:58:24;98690.50;;;14.41;40.44
37856;BME280;23694;43.274;26.924;2023-02-22T06:00:50;98686.25;;;15.75;37.38
37856;BME280;23694;43.274;26.924;2023-02-22T06:03:16;98691.66;;;16.48;35.93
37856;BME280;23694;43.274;26.924;2023-02-22T06:05:42;98694.38;;;16.84;35.06
37856;BME280;23694;43.274;26.924;2023-02-22T06:08:08;98707.22;;;16.51;35.21
37856;BME280;23694;43.274;26.924;2023-02-22T06:10:35;98705.50;;;17.23;34.04
37856;BME280;23694;43.274;26.924;2023-02-22T06:13:02;98705.00;;;17.45;33.74
37856;BME280;23694;43.274;26.924;2023-02-22T06:15:29;98705.41;;;17.68;33.16
37856;BME280;23694;43.274;26.924;2023-02-22T06:17:56;98709.09;;;17.57;33.09
37856;BME280;23694;43.274;26.924;2023-02-22T06:20:25;98718.16;;;17.98;32.65
37856;BME280;23694;43.274;26.924;2023-02-22T06:22:53;98717.94;;;17.66;33.08
37856;BME280;23694;43.274;26.924;2023-02-22T06:25:22;98724.91;;;17.49;33.34
37856;BME280;23694;43.274;26.924;2023-02-22T06:27:51;98727.66;;;17.04;33.74
37856;BME280;23694;43.274;26.924;2023-02-22T06:30:21;98729.25;;;16.69;34.64
37856;BME280;23694;43.274;26.924;2023-02-22T06:32:47;98740.59;;;15.39;36.79
37856;BME280;23694;43.274;26.924;2023-02-22T06:35:13;98739.06;;;15.08;37.89
37856;BME280;23694;43.274;26.924;2023-02-22T06:37:39;98731.34;;;14.56;38.68
37856;BME280;23694;43.274;26.924;2023-02-22T06:40:06;98726.66;;;14.79;39.37
37856;BME280;23694;43.274;26.924;2023-02-22T06:42:32;98726.97;;;15.15;38.29
37856;BME280;23694;43.274;26.924;2023-02-22T06:44:58;98725.59;;;15.59;37.57
37856;BME280;23694;43.274;26.924;2023-02-22T06:47:24;98705.94;;;17.36;34.38
37856;BME280;23694;43.274;26.924;2023-02-22T06:49:52;98725.31;;;18.32;32.84
37856;BME280;23694;43.274;26.924;2023-02-22T06:52:19;98718.06;;;17.82;33.40
37856;BME280;23694;43.274;26.924;2023-02-22T06:54:46;98721.66;;;18.33;32.38
37856;BME280;23694;43.274;26.924;2023-02-22T06:57:12;98729.88;;;16.16;36.19
37856;BME280;23694;43.274;26.924;2023-02-22T06:59:38;98720.84;;;16.19;36.50
37856;BME280;23694;43.274;26.924;2023-02-22T07:02:05;98727.75;;;15.93;36.96
37856;BME280;23694;43.274;26.924;2023-02-22T07:04:31;98732.00;;;15.66;37.95
37856;BME280;23694;43.274;26.924;2023-02-22T07:06:58;98735.75;;;15.64;37.74
37856;BME280;23694;43.274;26.924;2023-02-22T07:09:24;98728.78;;;15.34;38.64
37856;BME280;23694;43.274;26.924;2023-02-22T07:11:50;98724.34;;;15.25;38.88
37856;BME280;23694;43.274;26.924;2023-02-22T07:14:16;98718.09;;;15.06;39.24
37856;BME280;23694;43.274;26.924;2023-02-22T07:16:42;98722.00;;;15.21;40.94
37856;BME280;23694;43.274;26.924;2023-02-22T07:19:08;98724.06;;;15.18;39.56
37856;BME280;23694;43.274;26.924;2023-02-22T07:21:34;98715.31;;;14.98;39.94
37856;BME280;23694;43.274;26.924;2023-02-22T07:24:00;98710.75;;;15.10;40.08
37856;BME280;23694;43.274;26.924;2023-02-22T07:26:27;98715.88;;;15.11;40.27
37856;BME280;23694;43.274;26.924;2023-02-22T07:28:53;98712.97;;;15.14;40.12
37856;BME280;23694;43.274;26.924;2023-02-22T07:31:19;98725.47;;;15.22;39.93
37856;BME280;23694;43.274;26.924;2023-02-22T07:33:46;98716.00;;;15.29;39.65
37856;BME280;23694;43.274;26.924;2023-02-22T07:36:13;98713.78;;;15.44;40.27
37856;BME280;23694;43.274;26.924;2023-02-22T07:38:43;98706.28;;;15.39;39.16
37856;BME280;23694;43.274;26.924;2023-02-22T07:41:11;98710.03;;;15.37;39.96
37856;BME280;23694;43.274;26.924;2023-02-22T07:43:38;98714.91;;;15.22;40.18
37856;BME280;23694;43.274;26.924;2023-02-22T07:46:04;98703.09;;;15.16;40.26
37856;BME280;23694;43.274;26.924;2023-02-22T07:48:30;98713.78;;;15.05;40.51
37856;BME280;23694;43.274;26.924;2023-02-22T07:50:57;98705.47;;;15.10;40.86
37856;BME280;23694;43.274;26.924;2023-02-22T07:53:27;98707.53;;;15.26;40.02
37856;BME280;23694;43.274;26.924;2023-02-22T07:55:56;98711.97;;;15.35;40.29
37856;BME280;23694;43.274;26.924;2023-02-22T07:58:24;98713.78;;;15.15;40.67
37856;BME280;23694;43.274;26.924;2023-02-22T08:00:51;98711.69;;;15.47;39.85
37856;BME280;23694;43.274;26.924;2023-02-22T08:03:19;98711.56;;;15.59;40.13
37856;BME280;23694;43.274;26.924;2023-02-22T08:05:47;98718.59;;;15.87;39.60
37856;BME280;23694;43.274;26.924;2023-02-22T08:08:14;98709.59;;;15.80;39.81
37856;BME280;23694;43.274;26.924;2023-02-22T08:10:41;98712.25;;;15.70;39.79
37856;BME280;23694;43.274;26.924;2023-02-22T08:13:07;98718.06;;;15.83;39.68
37856;BME280;23694;43.274;26.924;2023-02-22T08:15:36;98718.22;;;15.72;40.11
37856;BME280;23694;43.274;26.924;2023-02-22T08:18:05;98717.75;;;15.87;39.79
37856;BME280;23694;43.274;26.924;2023-02-22T08:20:34;98723.75;;;15.79;39.49
37856;BME280;23694;43.274;26.924;2023-02-22T08:23:01;98709.09;;;16.04;39.44
37856;BME280;23694;43.274;26.924;2023-02-22T08:25:28;98710.81;;;16.23;38.95
37856;BME280;23694;43.274;26.924;2023-02-22T08:28:00;98717.72;;;15.96;39.49
37856;BME280;23694;43.274;26.924;2023-02-22T08:30:28;98701.38;;;16.20;38.95
37856;BME280;23694;43.274;26.924;2023-02-22T08:32:54;98708.00;;;16.34;38.85
37856;BME280;23694;43.274;26.924;2023-02-22T08:35:21;98709.72;;;16.53;38.33
37856;BME280;23694;43.274;26.924;2023-02-22T08:37:51;98708.25;;;16.40;38.81
37856;BME280;23694;43.274;26.924;2023-02-22T08:40:20;98712.56;;;16.41;38.29
37856;BME280;23694;43.274;26.924;2023-02-22T08:42:47;98700.25;;;16.50;38.82
37856;BME280;23694;43.274;26.924;2023-02-22T08:45:13;98708.81;;;16.62;38.53
37856;BME280;23694;43.274;26.924;2023-02-22T08:47:40;98704.19;;;16.73;38.24
37856;BME280;23694;43.274;26.924;2023-02-22T08:50:07;98709.13;;;17.04;37.74
37856;BME280;23694;43.274;26.924;2023-02-22T08:55:56;98707.25;;;16.96;37.77
37856;BME280;23694;43.274;26.924;2023-02-22T08:58:22;98710.13;;;17.03;37.59
37856;BME280;23694;43.274;26.924;2023-02-22T09:00:49;98710.72;;;16.97;37.65
37856;BME280;23694;43.274;26.924;2023-02-22T09:06:40;98705.81;;;17.02;37.60
37856;BME280;23694;43.274;26.924;2023-02-22T09:09:06;98704.53;;;17.06;37.64
37856;BME280;23694;43.274;26.924;2023-02-22T09:11:33;98704.19;;;17.27;37.23
37856;BME280;23694;43.274;26.924;2023-02-22T09:13:59;98708.22;;;17.31;37.24
37856;BME280;23694;43.274;26.924;2023-02-22T09:16:25;98714.81;;;17.53;36.48
37856;BME280;23694;43.274;26.924;2023-02-22T09:18:51;98711.69;;;17.67;36.35
37856;BME280;23694;43.274;26.924;2023-02-22T09:21:17;98702.63;;;17.78;36.36
37856;BME280;23694;43.274;26.924;2023-02-22T09:23:47;98706.16;;;17.86;36.06
37856;BME280;23694;43.274;26.924;2023-02-22T09:26:13;98704.00;;;17.82;36.14
37856;BME280;23694;43.274;26.924;2023-02-22T09:28:40;98695.56;;;17.86;35.96
37856;BME280;23694;43.274;26.924;2023-02-22T09:31:07;98711.56;;;18.02;35.86
37856;BME280;23694;43.274;26.924;2023-02-22T09:33:33;98709.09;;;18.09;35.57
37856;BME280;23694;43.274;26.924;2023-02-22T09:35:59;98709.94;;;18.10;35.79
37856;BME280;23694;43.274;26.924;2023-02-22T09:38:26;98701.19;;;17.83;35.90
37856;BME280;23694;43.274;26.924;2023-02-22T09:46:35;98694.88;;;18.44;34.89
37856;BME280;23694;43.274;26.924;2023-02-22T09:51:45;98701.31;;;18.42;34.39
37856;BME280;23694;43.274;26.924;2023-02-22T09:54:22;98697.59;;;17.92;35.61
37856;BME280;23694;43.274;26.924;2023-02-22T09:56:53;98699.50;;;18.42;35.04
37856;BME280;23694;43.274;26.924;2023-02-22T09:59:26;98693.91;;;18.53;34.38
37856;BME280;23694;43.274;26.924;2023-02-22T10:02:47;98695.13;;;18.67;34.45
37856;BME280;23694;43.274;26.924;2023-02-22T10:04:53;98687.34;;;18.74;33.98
37856;BME280;23694;43.274;26.924;2023-02-22T10:07:29;98702.13;;;18.84;33.92
37856;BME280;23694;43.274;26.924;2023-02-22T10:09:58;98695.53;;;18.88;33.78
37856;BME280;23694;43.274;26.924;2023-02-22T10:26:29;98682.44;;;19.19;32.98
37856;BME280;23694;43.274;26.924;2023-02-22T10:29:02;98687.41;;;19.39;32.64
37856;BME280;23694;43.274;26.924;2023-02-22T10:31:32;98684.09;;;19.45;32.62
37856;BME280;23694;43.274;26.924;2023-02-22T10:34:01;98678.31;;;19.66;32.10
37856;BME280;23694;43.274;26.924;2023-02-22T10:36:28;98666.50;;;19.36;31.65
37856;BME280;23694;43.274;26.924;2023-02-22T10:39:47;98674.81;;;19.32;32.19
37856;BME280;23694;43.274;26.924;2023-02-22T10:41:50;98663.84;;;19.44;32.19
37856;BME280;23694;43.274;26.924;2023-02-22T10:44:17;98653.75;;;19.63;31.66
37856;BME280;23694;43.274;26.924;2023-02-22T10:46:44;98660.19;;;19.77;31.53
37856;BME280;23694;43.274;26.924;2023-02-22T10:49:17;98667.84;;;19.64;31.16
37856;BME280;23694;43.274;26.924;2023-02-22T10:51:48;98663.78;;;19.92;31.37
37856;BME280;23694;43.274;26.924;2023-02-22T10:54:25;98657.25;;;20.11;30.75
37856;BME280;23694;43.274;26.924;2023-02-22T10:56:54;98649.53;;;19.85;31.38
37856;BME280;23694;43.274;26.924;2023-02-22T10:59:35;98658.13;;;19.95;30.91
37856;BME280;23694;43.274;26.924;2023-02-22T11:05:01;98658.97;;;20.43;29.72
37856;BME280;23694;43.274;26.924;2023-02-22T11:07:33;98644.38;;;20.39;29.42
37856;BME280;23694;43.274;26.924;2023-02-22T11:10:05;98650.00;;;20.36;29.75
37856;BME280;23694;43.274;26.924;2023-02-22T11:12:35;98651.09;;;20.19;29.90
37856;BME280;23694;43.274;26.924;2023-02-22T11:17:51;98654.38;;;19.49;30.69
37856;BME280;23694;43.274;26.924;2023-02-22T11:20:26;98647.94;;;19.27;31.05
37856;BME280;23694;43.274;26.924;2023-02-22T11:22:58;98648.09;;;19.67;30.61
37856;BME280;23694;43.274;26.924;2023-02-22T11:25:30;98645.28;;;19.60;30.22
37856;BME280;23694;43.274;26.924;2023-02-22T11:28:09;98653.41;;;19.34;30.56
37856;BME280;23694;43.274;26.924;2023-02-22T11:30:35;98650.56;;;19.36;30.91
37856;BME280;23694;43.274;26.924;2023-02-22T11:35:55;98652.75;;;19.56;29.79
37856;BME280;23694;43.274;26.924;2023-02-22T11:38:35;98643.41;;;19.44;30.08
37856;BME280;23694;43.274;26.924;2023-02-22T11:43:40;98651.72;;;19.41;30.07
37856;BME280;23694;43.274;26.924;2023-02-22T11:46:15;98640.63;;;19.13;30.15
37856;BME280;23694;43.274;26.924;2023-02-22T11:54:57;98644.84;;;18.57;31.41
37856;BME280;23694;43.274;26.924;2023-02-22T12:08:19;98644.81;;;18.49;32.53
37856;BME280;23694;43.274;26.924;2023-02-22T12:16:17;98636.16;;;18.97;31.82
37856;BME280;23694;43.274;26.924;2023-02-22T12:21:17;98631.66;;;19.22;31.54
37856;BME280;23694;43.274;26.924;2023-02-22T12:23:49;98629.84;;;19.15;31.73
37856;BME280;23694;43.274;26.924;2023-02-22T12:26:34;98632.16;;;19.26;31.14
37856;BME280;23694;43.274;26.924;2023-02-22T12:32:35;98625.16;;;19.74;30.64
37856;BME280;23694;43.274;26.924;2023-02-22T12:37:50;98628.53;;;19.19;31.38
37856;BME280;23694;43.274;26.924;2023-02-22T12:40:19;98632.31;;;19.32;31.44
37856;BME280;23694;43.274;26.924;2023-02-22T12:45:33;98642.63;;;18.95;31.48
37856;BME280;23694;43.274;26.924;2023-02-22T12:48:32;98637.59;;;18.76;31.92
37856;BME280;23694;43.274;26.924;2023-02-22T12:51:28;98635.50;;;18.95;31.38
37856;BME280;23694;43.274;26.924;2023-02-22T12:57:05;98641.25;;;18.75;31.73
37856;BME280;23694;43.274;26.924;2023-02-22T12:59:39;98649.22;;;18.83;31.57
37856;BME280;23694;43.274;26.924;2023-02-22T13:04:40;98642.06;;;18.67;31.95
37856;BME280;23694;43.274;26.924;2023-02-22T13:07:17;98637.72;;;18.58;32.14
37856;BME280;23694;43.274;26.924;2023-02-22T13:15:44;98632.78;;;18.63;31.92
37856;BME280;23694;43.274;26.924;2023-02-22T13:18:45;98634.06;;;18.59;31.78
37856;BME280;23694;43.274;26.924;2023-02-22T13:24:16;98639.03;;;18.54;31.69
37856;BME280;23694;43.274;26.924;2023-02-22T13:26:53;98640.50;;;18.48;31.88
37856;BME280;23694;43.274;26.924;2023-02-22T13:29:28;98636.28;;;18.21;32.22
37856;BME280;23694;43.274;26.924;2023-02-22T13:32:18;98635.59;;;18.19;32.55
37856;BME280;23694;43.274;26.924;2023-02-22T13:35:00;98635.25;;;18.14;32.81
37856;BME280;23694;43.274;26.924;2023-02-22T13:51:58;98649.75;;;18.36;33.24
37856;BME280;23694;43.274;26.924;2023-02-22T13:54:45;98645.78;;;18.32;33.33
37856;BME280;23694;43.274;26.924;2023-02-22T13:57:37;98650.44;;;18.38;33.25
37856;BME280;23694;43.274;26.924;2023-02-22T14:10:57;98652.19;;;18.63;32.69
37856;BME280;23694;43.274;26.924;2023-02-22T14:13:28;98652.69;;;18.67;32.60
37856;BME280;23694;43.274;26.924;2023-02-22T14:18:41;98658.25;;;18.56;32.44
37856;BME280;23694;43.274;26.924;2023-02-22T14:21:10;98656.59;;;18.55;32.60
37856;BME280;23694;43.274;26.924;2023-02-22T14:26:12;98661.72;;;18.40;32.85
37856;BME280;23694;43.274;26.924;2023-02-22T14:31:20;98659.78;;;18.16;33.15
37856;BME280;23694;43.274;26.924;2023-02-22T14:41:50;98662.59;;;17.81;33.64
37856;BME280;23694;43.274;26.924;2023-02-22T14:44:23;98665.72;;;17.76;33.95
37856;BME280;23694;43.274;26.924;2023-02-22T14:46:54;98668.59;;;17.65;34.08
37856;BME280;23694;43.274;26.924;2023-02-22T14:49:24;98674.81;;;17.73;33.97
37856;BME280;23694;43.274;26.924;2023-02-22T14:51:57;98673.97;;;17.73;34.28
37856;BME280;23694;43.274;26.924;2023-02-22T14:54:31;98680.00;;;17.83;34.19
37856;BME280;23694;43.274;26.924;2023-02-22T14:57:08;98679.50;;;17.62;34.29
37856;BME280;23694;43.274;26.924;2023-02-22T14:59:49;98675.94;;;17.71;34.33
37856;BME280;23694;43.274;26.924;2023-02-22T15:02:17;98684.09;;;17.78;34.23
37856;BME280;23694;43.274;26.924;2023-02-22T15:04:53;98727.19;;;17.26;36.19
37856;BME280;23694;43.274;26.924;2023-02-22T15:09:46;98739.88;;;14.18;43.14
37856;BME280;23694;43.274;26.924;2023-02-22T15:12:22;98727.25;;;12.97;46.36
37856;BME280;23694;43.274;26.924;2023-02-22T15:15:09;98732.06;;;12.92;48.09
37856;BME280;23694;43.274;26.924;2023-02-22T15:17:38;98762.13;;;12.45;50.53
37856;BME280;23694;43.274;26.924;2023-02-22T15:20:07;98741.72;;;12.15;51.75
37856;BME280;23694;43.274;26.924;2023-02-22T15:22:37;98759.56;;;11.41;54.62
37856;BME280;23694;43.274;26.924;2023-02-22T15:25:06;98759.75;;;11.27;55.72
37856;BME280;23694;43.274;26.924;2023-02-22T15:27:34;98765.34;;;11.22;55.77
37856;BME280;23694;43.274;26.924;2023-02-22T15:32:40;98765.44;;;11.21;56.13
37856;BME280;23694;43.274;26.924;2023-02-22T15:35:17;98772.69;;;11.41;55.31
37856;BME280;23694;43.274;26.924;2023-02-22T15:37:45;98768.94;;;11.32;55.29
37856;BME280;23694;43.274;26.924;2023-02-22T15:40:18;98780.69;;;11.16;56.32
37856;BME280;23694;43.274;26.924;2023-02-22T15:42:50;98783.16;;;10.93;57.12
37856;BME280;23694;43.274;26.924;2023-02-22T15:45:24;98780.84;;;10.65;57.61
37856;BME280;23694;43.274;26.924;2023-02-22T15:47:51;98787.16;;;10.62;57.46
37856;BME280;23694;43.274;26.924;2023-02-22T15:55:21;98799.19;;;10.65;56.77
37856;BME280;23694;43.274;26.924;2023-02-22T15:57:49;98787.78;;;10.66;55.17
37856;BME280;23694;43.274;26.924;2023-02-22T16:00:25;98801.69;;;10.66;55.23